Time;durP1;ratioP1;P1;durP2;ratioP2;P2;SDS_P1;SDS_P2;PMS_P1;PMS_P2;Temp;Humidity;BMP_temperature;BMP_pressure;BME280_temperature;BME280_humidity;BME280_pressure;Samples;Min_cycle;Max_cycle;Signal;HPM_P1;HPM_P2
2021/01/28 00:01:12;;;;;;;6.40;5.20;;;;;;;-2.51;100.00;95509.13;4940526;29;20341;-96
2021/01/28 00:03:39;;;;;;;5.43;4.80;;;;;;;-2.41;100.00;95511.94;4941878;29;20203;-96
2021/01/28 00:06:08;;;;;;;8.20;5.80;;;;;;;-2.41;100.00;95515.31;4942854;29;20213;-96
2021/01/28 00:08:35;;;;;;;8.80;5.57;;;;;;;-2.31;100.00;95512.16;4948309;29;20202;-96
2021/01/28 00:11:02;;;;;;;5.87;5.20;;;;;;;-2.49;100.00;95519.31;4950777;29;20234;-96
2021/01/28 00:13:29;;;;;;;6.80;5.67;;;;;;;-2.66;100.00;95523.78;4952811;29;20206;-96
2021/01/28 00:15:56;;;;;;;6.67;4.80;;;;;;;-2.46;100.00;95522.53;4955648;29;20222;-96
2021/01/28 00:18:24;;;;;;;6.93;4.93;;;;;;;-2.46;100.00;95526.81;4955982;29;20276;-96
2021/01/28 00:20:52;;;;;;;5.87;4.77;;;;;;;-2.52;100.00;95532.38;4951160;29;20222;-96
2021/01/28 00:23:20;;;;;;;6.10;4.87;;;;;;;-2.35;100.00;95526.97;4951194;29;20207;-96
2021/01/28 00:25:47;;;;;;;5.67;5.07;;;;;;;-2.45;100.00;95518.19;4954774;29;20194;-95
2021/01/28 00:28:18;;;;;;;7.87;4.50;;;;;;;-2.38;100.00;95534.06;4946036;29;20221;-96
2021/01/28 00:30:47;;;;;;;6.37;5.60;;;;;;;-2.44;100.00;95530.97;4948177;29;20211;-96
2021/01/28 00:33:15;;;;;;;6.07;4.37;;;;;;;-2.49;100.00;95530.44;4948173;29;20202;-96
2021/01/28 00:35:45;;;;;;;5.63;5.03;;;;;;;-2.53;100.00;95521.28;4949573;29;20221;-96
2021/01/28 00:38:15;;;;;;;6.73;4.70;;;;;;;-2.35;100.00;95518.44;4954252;29;20234;-96
2021/01/28 00:40:42;;;;;;;5.57;4.70;;;;;;;-2.41;100.00;95529.94;4952399;29;20210;-96
2021/01/28 00:43:09;;;;;;;7.70;4.53;;;;;;;-2.44;100.00;95525.81;4956795;29;20178;-96
2021/01/28 00:45:39;;;;;;;5.30;4.80;;;;;;;-2.34;100.00;95536.34;5049901;23;20249;-96
2021/01/28 00:48:07;;;;;;;6.30;5.00;;;;;;;-2.35;100.00;95526.97;4976718;28;20210;-96
2021/01/28 00:50:37;;;;;;;6.13;4.37;;;;;;;-2.35;100.00;95526.97;4999966;23;20297;-96
2021/01/28 00:53:05;;;;;;;5.70;5.10;;;;;;;-2.48;100.00;95539.78;4975184;28;20225;-96
2021/01/28 00:55:32;;;;;;;5.27;4.80;;;;;;;-2.34;100.00;95535.53;4999414;23;20189;-96
2021/01/28 00:57:59;;;;;;;5.23;4.63;;;;;;;-2.35;100.00;95526.16;4958295;29;20238;-96
2021/01/28 01:00:29;;;;;;;5.87;5.10;;;;;;;-2.40;100.00;95531.59;5071264;23;20228;-96
2021/01/28 01:02:57;;;;;;;5.83;4.70;;;;;;;-2.38;100.00;95524.59;4980601;28;20178;-96
2021/01/28 01:05:28;;;;;;;5.37;4.83;;;;;;;-2.26;100.00;95530.69;5128572;23;20309;-96
2021/01/28 01:07:56;;;;;;;6.60;5.33;;;;;;;-2.42;100.00;95531.69;4975305;28;20273;-96
2021/01/28 01:10:31;;;;;;;6.73;5.50;;;;;;;-2.37;100.00;95528.81;5296339;23;20253;-96
2021/01/28 01:18:10;;;;;;;8.00;5.60;;;;;;;-2.38;100.00;95534.91;4969902;29;20229;-95
2021/01/28 01:20:37;;;;;;;7.27;5.93;;;;;;;-2.26;100.00;95534.09;4971341;28;20193;-95
2021/01/28 01:23:04;;;;;;;10.77;5.27;;;;;;;-2.34;100.00;95538.09;4974565;28;20209;-96
2021/01/28 01:28:01;;;;;;;5.87;5.13;;;;;;;-2.31;100.00;95530.19;4973198;28;20264;-96
2021/01/28 01:30:28;;;;;;;6.80;4.93;;;;;;;-2.23;100.00;95531.31;4968768;28;20226;-96
2021/01/28 01:32:55;;;;;;;5.67;5.13;;;;;;;-2.13;100.00;95530.75;4970844;28;20206;-96
2021/01/28 01:35:24;;;;;;;4.83;4.13;;;;;;;-2.12;100.00;95522.91;4973722;28;20198;-96
2021/01/28 01:37:52;;;;;;;7.50;5.23;;;;;;;-2.34;100.00;95526.06;4975056;28;20202;-96
2021/01/28 01:40:24;;;;;;;7.17;5.00;;;;;;;-2.20;100.00;95525.16;4969801;28;20205;-95
2021/01/28 01:42:52;;;;;;;5.37;4.73;;;;;;;-2.31;100.00;95528.44;4974366;29;20178;-96
2021/01/28 01:58:41;;;;;;;6.33;4.40;;;;;;;-2.22;100.00;95538.16;1475324;23;20485;-95
2021/01/28 02:01:08;;;;;;;5.90;4.93;;;;;;;-2.27;100.00;95536.78;5156492;23;20248;-96
2021/01/28 02:03:37;;;;;;;6.17;4.80;;;;;;;-2.19;100.00;95544.81;5512797;23;20241;-96
2021/01/28 02:26:53;;;;;;;6.77;5.10;;;;;;;-2.31;100.00;95567.03;5170793;23;20244;-96
2021/01/28 02:29:26;;;;;;;5.87;4.53;;;;;;;-2.47;100.00;95571.50;5528604;23;20237;-96
2021/01/28 02:36:56;;;;;;;4.70;4.30;;;;;;;-2.35;100.00;95575.06;5124232;23;20462;-96
2021/01/28 02:39:25;;;;;;;4.63;4.20;;;;;;;-2.26;100.00;95575.28;5171691;23;20237;-96
2021/01/28 02:42:01;;;;;;;6.87;4.60;;;;;;;-2.37;100.00;95576.91;5198090;23;20218;-96
2021/01/28 02:47:04;;;;;;;5.53;4.20;;;;;;;-2.17;100.00;95577.28;5000705;23;20245;-96
2021/01/28 02:49:31;;;;;;;5.20;4.40;;;;;;;-2.19;100.00;95573.97;4978580;28;20263;-96
2021/01/28 02:51:58;;;;;;;5.27;4.77;;;;;;;-2.24;100.00;95578.59;4977175;28;20194;-96
2021/01/28 02:54:25;;;;;;;3.70;3.40;;;;;;;-2.44;100.00;95581.59;4975765;28;20210;-96
2021/01/28 02:56:52;;;;;;;5.93;5.30;;;;;;;-2.31;100.00;95577.34;4976209;28;20206;-96
2021/01/28 02:59:22;;;;;;;7.33;4.50;;;;;;;-2.26;100.00;95577.03;5049154;23;20230;-96
2021/01/28 03:01:49;;;;;;;5.33;4.80;;;;;;;-2.33;100.00;95583.50;4976678;28;20218;-96
2021/01/28 03:04:16;;;;;;;5.77;4.67;;;;;;;-2.41;100.00;95576.25;4977400;28;20197;-96
2021/01/28 03:06:43;;;;;;;5.77;4.47;;;;;;;-2.35;100.00;95580.22;4976928;28;20198;-96
2021/01/28 03:09:10;;;;;;;8.00;4.87;;;;;;;-2.41;100.00;95578.84;5313590;23;20269;-96
2021/01/28 03:11:37;;;;;;;5.17;4.20;;;;;;;-2.45;100.00;95580.78;4978614;28;20198;-96
2021/01/28 03:14:04;;;;;;;8.00;5.27;;;;;;;-2.36;100.00;95583.69;4975696;28;20205;-96
2021/01/28 03:16:32;;;;;;;5.27;4.73;;;;;;;-2.34;100.00;95585.25;4974677;28;20194;-96
2021/01/28 03:19:00;;;;;;;5.70;4.63;;;;;;;-2.49;100.00;95588.78;4972229;28;20261;-96
2021/01/28 03:21:27;;;;;;;6.00;4.67;;;;;;;-2.45;100.00;95585.94;4974096;28;20198;-96
2021/01/28 03:23:53;;;;;;;6.37;5.03;;;;;;;-2.49;100.00;95584.47;4965399;28;20202;-96
2021/01/28 03:26:20;;;;;;;4.83;4.07;;;;;;;-2.41;100.00;95586.56;4965918;28;20209;-96
2021/01/28 03:28:47;;;;;;;4.53;3.93;;;;;;;-2.45;100.00;95582.53;4959540;28;20201;-96
2021/01/28 03:31:14;;;;;;;7.50;4.90;;;;;;;-2.42;100.00;95584.91;4958834;28;20229;-96
2021/01/28 03:33:43;;;;;;;5.70;5.17;;;;;;;-2.51;100.00;95586.31;4960665;28;20206;-96
2021/01/28 03:36:10;;;;;;;5.07;4.53;;;;;;;-2.66;100.00;95593.22;4961699;28;20281;-96
2021/01/28 03:38:37;;;;;;;5.07;4.23;;;;;;;-2.71;100.00;95594.44;4960332;28;20195;-96
2021/01/28 03:41:04;;;;;;;7.57;4.60;;;;;;;-2.54;100.00;95594.22;4963013;28;20221;-96
2021/01/28 03:43:31;;;;;;;5.57;4.43;;;;;;;-2.63;100.00;95594.78;4964150;28;20199;-96
2021/01/28 03:45:58;;;;;;;5.80;4.40;;;;;;;-2.48;100.00;95598.16;4963504;29;20289;-96
2021/01/28 03:48:25;;;;;;;12.50;6.67;;;;;;;-2.46;100.00;95591.16;4963095;28;20292;-96
2021/01/28 03:50:53;;;;;;;6.30;5.00;;;;;;;-2.54;100.00;95606.25;4960002;28;20230;-96
2021/01/28 03:53:20;;;;;;;7.43;5.43;;;;;;;-2.42;100.00;95601.19;4958482;29;20705;-96
2021/01/28 03:55:47;;;;;;;6.43;5.73;;;;;;;-2.45;100.00;95600.53;4959413;28;20293;-96
2021/01/28 03:58:14;;;;;;;9.60;7.00;;;;;;;-2.42;100.00;95603.75;4959783;28;20252;-96
2021/01/28 04:00:41;;;;;;;6.97;5.47;;;;;;;-2.50;100.00;95600.81;4961165;28;20285;-96
2021/01/28 04:03:08;;;;;;;8.63;5.63;;;;;;;-2.50;100.00;95602.56;4960024;28;20208;-96
2021/01/28 04:05:35;;;;;;;5.17;4.50;;;;;;;-2.49;100.00;95604.22;4958370;28;20232;-96
2021/01/28 04:08:03;;;;;;;4.80;4.30;;;;;;;-2.48;100.00;95600.72;4959011;28;20289;-96
2021/01/28 04:10:33;;;;;;;4.87;4.13;;;;;;;-2.40;100.00;95611.34;4957860;28;20757;-96
2021/01/28 04:13:00;;;;;;;6.93;5.33;;;;;;;-2.62;100.00;95611.88;4958599;29;20281;-96
2021/01/28 04:15:27;;;;;;;7.13;4.97;;;;;;;-2.68;100.00;95610.50;4958270;29;20202;-96
2021/01/28 04:17:54;;;;;;;6.20;4.87;;;;;;;-2.52;100.00;95607.81;4957813;29;20228;-96
2021/01/28 04:20:23;;;;;;;6.97;5.47;;;;;;;-2.58;100.00;95609.94;4957230;29;20236;-96
2021/01/28 04:22:50;;;;;;;6.87;4.73;;;;;;;-2.63;100.00;95613.63;4957359;29;20690;-96
2021/01/28 04:25:20;;;;;;;8.07;5.17;;;;;;;-2.75;100.00;95616.13;4957355;29;20232;-96
2021/01/28 04:27:47;;;;;;;4.87;4.43;;;;;;;-2.61;100.00;95618.66;4957236;29;20203;-96
2021/01/28 04:30:18;;;;;;;6.30;4.73;;;;;;;-2.67;100.00;95619.03;4957063;29;20350;-96
2021/01/28 04:32:45;;;;;;;6.27;4.47;;;;;;;-2.91;100.00;95618.78;4957629;29;20711;-96
2021/01/28 04:35:13;;;;;;;5.70;4.83;;;;;;;-2.76;100.00;95615.28;4956796;28;20197;-96
2021/01/28 04:37:40;;;;;;;7.90;5.07;;;;;;;-2.98;100.00;95623.50;4957183;28;20663;-95
2021/01/28 04:40:12;;;;;;;8.43;6.30;;;;;;;-2.86;100.00;95629.63;4956502;28;20589;-96
2021/01/28 04:42:45;;;;;;;5.80;5.20;;;;;;;-2.77;100.00;95626.50;4961486;29;20548;-96
2021/01/28 04:45:14;;;;;;;7.33;5.13;;;;;;;-2.74;100.00;95634.00;4957780;29;20209;-93
2021/01/28 04:47:48;;;;;;;7.13;5.17;;;;;;;-2.74;100.00;95641.72;4957768;29;20697;-96
2021/01/28 04:50:21;;;;;;;5.40;4.37;;;;;;;-2.82;100.00;95648.28;4957169;29;20217;-96
2021/01/28 04:52:51;;;;;;;7.03;5.77;;;;;;;-2.89;100.00;95642.66;4956272;29;20198;-95
2021/01/28 04:55:38;;;;;;;7.67;5.50;;;;;;;-2.92;100.00;95643.66;4955712;28;20209;-96
2021/01/28 04:58:07;;;;;;;6.23;5.30;;;;;;;-2.90;100.00;95649.56;4956661;29;20226;-96
2021/01/28 05:00:34;;;;;;;7.17;6.30;;;;;;;-2.85;100.00;95653.59;4956620;28;20341;-95
2021/01/28 05:03:07;;;;;;;11.20;7.63;;;;;;;-2.70;100.00;95652.66;4956606;28;20958;-96
2021/01/28 05:05:34;;;;;;;12.33;9.00;;;;;;;-2.71;100.00;95662.13;4956179;29;20251;-95
2021/01/28 05:08:01;;;;;;;10.77;9.30;;;;;;;-2.79;100.00;95661.78;4956274;28;20213;-95
2021/01/28 05:10:44;;;;;;;10.30;8.43;;;;;;;-2.96;100.00;95659.38;4955967;28;20268;-96
2021/01/28 05:13:24;;;;;;;12.33;10.73;;;;;;;-3.06;100.00;95663.41;4956310;29;20201;-96
2021/01/28 05:15:52;;;;;;;9.20;8.30;;;;;;;-3.09;100.00;95663.59;4956396;29;20225;-95
2021/01/28 05:18:31;;;;;;;6.70;6.07;;;;;;;-3.13;100.00;95668.91;4956036;28;20269;-95
2021/01/28 05:21:11;;;;;;;7.53;6.10;;;;;;;-2.91;100.00;95665.06;4957090;29;20662;-94
2021/01/28 05:23:41;;;;;;;6.30;5.17;;;;;;;-2.83;100.00;95660.31;4956869;29;20193;-92
2021/01/28 05:26:28;;;;;;;8.17;5.33;;;;;;;-2.86;100.00;95663.06;4956214;29;20285;-94
2021/01/28 05:28:57;;;;;;;5.83;4.40;;;;;;;-3.01;100.00;95666.53;4956096;29;20202;-94
2021/01/28 05:31:30;;;;;;;5.63;5.13;;;;;;;-2.91;100.00;95668.50;4956060;28;20606;-95
2021/01/28 05:34:07;;;;;;;10.77;5.83;;;;;;;-2.85;100.00;95671.59;4956456;29;20202;-94
2021/01/28 05:36:34;;;;;;;5.50;5.00;;;;;;;-2.75;100.00;95673.53;4955912;29;20197;-94
2021/01/28 05:39:21;;;;;;;9.07;6.07;;;;;;;-2.68;100.00;95679.94;4956165;28;20292;-95
2021/01/28 05:41:50;;;;;;;6.40;5.77;;;;;;;-2.86;100.00;95675.91;4955709;29;20193;-95
2021/01/28 05:44:22;;;;;;;5.20;4.33;;;;;;;-2.77;100.00;95677.09;4955905;28;20252;-94
2021/01/28 05:47:03;;;;;;;7.67;5.30;;;;;;;-2.66;100.00;95682.44;4955621;29;20659;-95
2021/01/28 05:49:31;;;;;;;8.70;6.63;;;;;;;-2.75;100.00;95677.84;4955673;29;20233;-95
2021/01/28 05:52:11;;;;;;;8.93;7.40;;;;;;;-2.57;100.00;95679.28;4955342;28;20265;-95
2021/01/28 05:54:39;;;;;;;8.43;6.13;;;;;;;-2.74;100.00;95684.63;4955414;29;20190;-95
2021/01/28 05:57:09;;;;;;;8.80;6.17;;;;;;;-2.64;100.00;95689.13;4955688;28;20237;-95
2021/01/28 05:59:43;;;;;;;9.33;8.27;;;;;;;-2.68;100.00;95689.41;4955482;29;20267;-95
2021/01/28 06:02:46;;;;;;;21.30;11.27;;;;;;;-2.80;100.00;95685.84;4955426;29;20674;-94
2021/01/28 06:05:29;;;;;;;10.77;8.53;;;;;;;-2.67;100.00;95697.06;4935673;28;20667;-95
2021/01/28 06:08:28;;;;;;;9.53;7.40;;;;;;;-2.64;100.00;95702.00;4955458;29;20189;-95
2021/01/28 06:11:31;;;;;;;8.37;6.93;;;;;;;-2.34;100.00;95701.06;4954957;29;20245;-94
2021/01/28 06:14:25;;;;;;;7.70;5.83;;;;;;;-2.36;100.00;95709.78;4955106;29;20186;-94
2021/01/28 06:17:10;;;;;;;8.77;5.90;;;;;;;-2.60;100.00;95712.91;4952110;29;20206;-95
2021/01/28 06:20:02;;;;;;;7.73;6.43;;;;;;;-2.29;100.00;95711.06;4955058;29;20190;-94
2021/01/28 06:22:44;;;;;;;8.37;6.50;;;;;;;-2.20;100.00;95713.91;4955080;29;20193;-94
2021/01/28 06:25:55;;;;;;;13.60;8.70;;;;;;;-2.27;100.00;95719.53;4954975;29;20194;-95
2021/01/28 06:28:38;;;;;;;9.87;7.97;;;;;;;-2.33;100.00;95718.16;4919410;29;20297;-94
2021/01/28 06:31:24;;;;;;;9.07;7.37;;;;;;;-2.38;100.00;95721.94;4954840;29;20260;-95
2021/01/28 06:34:24;;;;;;;11.33;9.47;;;;;;;-2.54;100.00;95724.59;4954926;29;20705;-95
2021/01/28 06:37:20;;;;;;;10.10;7.90;;;;;;;-2.35;100.00;95727.72;4955103;29;20214;-95
2021/01/28 06:39:50;;;;;;;10.03;9.00;;;;;;;-2.28;100.00;95726.44;4955374;29;20201;-95
2021/01/28 06:42:26;;;;;;;18.00;12.63;;;;;;;-2.09;100.00;95733.03;4955144;29;20366;-95
2021/01/28 06:45:00;;;;;;;17.53;10.17;;;;;;;-2.13;100.00;95734.97;4954832;29;20228;-96
2021/01/28 06:47:32;;;;;;;20.20;10.43;;;;;;;-2.02;100.00;95731.72;4954867;29;20196;-95
2021/01/28 06:50:07;;;;;;;14.67;10.60;;;;;;;-2.27;100.00;95735.81;4955150;29;20182;-94
2021/01/28 06:52:53;;;;;;;11.30;8.73;;;;;;;-2.21;100.00;95738.00;4955022;29;20197;-95
2021/01/28 06:55:33;;;;;;;9.67;8.07;;;;;;;-2.08;100.00;95737.25;4954595;29;20652;-94
2021/01/28 06:58:13;;;;;;;18.37;12.57;;;;;;;-2.01;100.00;95743.66;4955168;29;20182;-94
2021/01/28 07:00:46;;;;;;;11.23;9.00;;;;;;;-1.96;100.00;95744.22;4955286;29;20209;-95
2021/01/28 07:03:23;;;;;;;9.77;8.73;;;;;;;-1.88;100.00;95741.16;4954517;29;20190;-94
2021/01/28 07:05:59;;;;;;;13.00;9.93;;;;;;;-1.85;100.00;95749.53;4954829;29;20193;-96
2021/01/28 07:08:47;;;;;;;12.17;9.03;;;;;;;-1.83;100.00;95749.44;4954787;29;20272;-95
2021/01/28 07:11:25;;;;;;;12.90;8.23;;;;;;;-1.70;100.00;95752.88;4954401;29;20774;-95
2021/01/28 07:13:52;;;;;;;14.53;9.90;;;;;;;-1.77;100.00;95756.78;4955339;29;20639;-96
2021/01/28 07:16:29;;;;;;;17.07;11.77;;;;;;;-1.68;100.00;95754.44;4954706;29;20642;-96
2021/01/28 07:19:03;;;;;;;13.27;9.53;;;;;;;-1.72;100.00;95753.00;4957810;29;20613;-96
2021/01/28 07:21:36;;;;;;;13.10;9.47;;;;;;;-1.52;100.00;95761.22;4957637;29;20182;-96
2021/01/28 07:24:07;;;;;;;14.63;11.27;;;;;;;-1.45;100.00;95768.47;4958455;29;20189;-96
2021/01/28 07:26:55;;;;;;;15.03;12.43;;;;;;;-1.20;100.00;95767.72;4958563;29;20569;-96
2021/01/28 07:29:55;;;;;;;13.93;8.57;;;;;;;-1.11;100.00;95775.78;4958233;29;20186;-96
2021/01/28 07:32:55;;;;;;;12.27;8.30;;;;;;;-0.91;100.00;95774.47;4958408;29;20591;-96
2021/01/28 07:35:46;;;;;;;10.70;8.57;;;;;;;-0.56;100.00;95783.28;4958395;29;20630;-96
2021/01/28 07:38:48;;;;;;;9.97;6.90;;;;;;;-0.45;100.00;95781.75;4958422;29;20216;-95
2021/01/28 07:41:53;;;;;;;9.17;5.97;;;;;;;-0.30;100.00;95781.53;4958103;29;20194;-96
2021/01/28 07:44:48;;;;;;;6.77;6.07;;;;;;;-0.51;100.00;95790.75;4952008;29;20334;-95
2021/01/28 07:47:49;;;;;;;8.40;7.00;;;;;;;-0.53;100.00;95792.59;4958167;29;20194;-96
2021/01/28 07:50:38;;;;;;;6.83;5.87;;;;;;;-0.57;100.00;95793.72;4957987;29;20639;-96
2021/01/28 07:53:38;;;;;;;9.97;8.13;;;;;;;-0.42;100.00;95790.09;4957905;29;20643;-96
2021/01/28 07:56:44;;;;;;;8.70;6.87;;;;;;;-0.20;100.00;95789.50;4957664;29;20193;-95
2021/01/28 07:59:15;;;;;;;7.10;4.80;;;;;;;-0.02;100.00;95793.41;4957913;29;20216;-95
2021/01/28 08:01:43;;;;;;;5.67;5.00;;;;;;;0.06;100.00;95790.28;4957563;29;20191;-96
2021/01/28 08:04:25;;;;;;;7.80;5.30;;;;;;;0.11;100.00;95789.97;4957461;28;20229;-96
2021/01/28 08:06:52;;;;;;;10.10;7.30;;;;;;;0.43;100.00;95793.72;4957445;29;20194;-96
2021/01/28 08:09:19;;;;;;;9.67;5.90;;;;;;;0.12;100.00;95799.38;4957524;28;20237;-95
2021/01/28 08:11:49;;;;;;;5.40;4.90;;;;;;;0.31;100.00;95810.06;4957997;28;20316;-96
2021/01/28 08:14:16;;;;;;;4.70;3.80;;;;;;;-0.09;100.00;95807.66;4957904;28;20208;-95
2021/01/28 08:16:51;;;;;;;5.97;4.40;;;;;;;0.38;100.00;95816.50;4958861;29;20213;-95
2021/01/28 08:19:22;;;;;;;6.63;5.73;;;;;;;0.37;100.00;95816.56;4957954;29;20208;-96
2021/01/28 08:21:50;;;;;;;9.70;5.60;;;;;;;0.05;100.00;95819.63;4957481;29;20234;-96
2021/01/28 08:24:34;;;;;;;8.07;6.43;;;;;;;0.50;100.00;95819.97;4957354;28;20198;-95
2021/01/28 08:27:13;;;;;;;6.93;5.10;;;;;;;0.18;100.00;95824.81;4957193;29;20220;-94
2021/01/28 08:29:40;;;;;;;5.37;4.60;;;;;;;0.11;100.00;95823.56;4957345;28;20679;-94
2021/01/28 08:32:24;;;;;;;4.27;3.87;;;;;;;0.53;100.00;95830.09;4956871;28;20229;-94
2021/01/28 08:35:00;;;;;;;5.77;4.53;;;;;;;0.50;100.00;95819.97;4957154;29;20209;-95
2021/01/28 08:37:29;;;;;;;8.57;4.40;;;;;;;0.67;100.00;95827.34;4957271;29;20209;-96
2021/01/28 08:39:57;;;;;;;7.00;5.10;;;;;;;1.01;100.00;95822.34;4957511;28;20202;-95
2021/01/28 08:42:26;;;;;;;7.00;5.00;;;;;;;1.30;100.00;95822.81;4957877;28;20674;-96
2021/01/28 08:45:20;;;;;;;8.37;6.80;;;;;;;1.49;100.00;95822.28;4957531;28;20206;-94
2021/01/28 08:47:58;;;;;;;4.97;4.47;;;;;;;1.01;100.00;95832.72;4959989;29;20255;-95
2021/01/28 08:50:27;;;;;;;6.53;3.73;;;;;;;0.61;100.00;95834.72;4958774;28;20721;-96
2021/01/28 08:53:01;;;;;;;6.27;5.33;;;;;;;0.67;100.00;95832.53;4957181;28;20715;-96
2021/01/28 08:55:34;;;;;;;4.53;3.90;;;;;;;0.85;100.00;95829.56;4957120;29;20214;-95
2021/01/28 08:58:08;;;;;;;6.93;5.00;;;;;;;1.49;100.00;95824.03;4956790;29;20209;-95
2021/01/28 09:00:40;;;;;;;6.13;4.63;;;;;;;1.69;100.00;95825.97;4956846;29;20710;-95
2021/01/28 09:03:08;;;;;;;5.77;5.13;;;;;;;1.98;100.00;95835.94;4956652;29;20300;-95
2021/01/28 09:05:35;;;;;;;5.43;4.00;;;;;;;1.43;100.00;95846.03;4956673;29;20205;-94
2021/01/28 09:08:04;;;;;;;5.87;3.97;;;;;;;1.97;100.00;95842.03;4956552;29;20205;-93
2021/01/28 09:10:35;;;;;;;5.87;4.40;;;;;;;1.69;100.00;95846.69;4956343;29;20272;-94
2021/01/28 09:13:29;;;;;;;6.77;5.37;;;;;;;1.81;100.00;95844.97;4956715;29;20213;-95
2021/01/28 09:16:10;;;;;;;6.03;5.03;;;;;;;1.98;100.00;95841.94;4939461;29;20237;-95
2021/01/28 09:18:39;;;;;;;7.80;4.83;;;;;;;2.13;100.00;95845.94;4956588;29;20227;-95
2021/01/28 09:21:12;;;;;;;7.33;5.13;;;;;;;1.88;100.00;95846.16;4956172;29;20210;-95
2021/01/28 09:23:59;;;;;;;6.93;5.37;;;;;;;2.30;100.00;95846.41;4956320;29;20280;-94
2021/01/28 09:26:30;;;;;;;8.67;5.03;;;;;;;2.45;100.00;95847.00;4956751;29;20196;-94
2021/01/28 09:29:09;;;;;;;6.17;4.93;;;;;;;2.26;100.00;95843.22;4956488;29;20677;-94
2021/01/28 09:31:36;;;;;;;10.30;7.70;;;;;;;3.13;100.00;95837.31;4956765;29;20290;-95
2021/01/28 09:34:13;;;;;;;6.33;5.30;;;;;;;2.81;100.00;95836.34;4956105;29;20208;-94
2021/01/28 09:36:41;;;;;;;7.60;6.90;;;;;;;3.20;100.00;95839.28;4956120;29;20288;-95
2021/01/28 09:39:15;;;;;;;6.73;5.93;;;;;;;3.27;100.00;95834.41;4956030;29;20205;-94
2021/01/28 09:41:44;;;;;;;6.20;4.77;;;;;;;2.76;100.00;95838.44;4955578;28;20214;-96
2021/01/28 09:44:31;;;;;;;7.00;4.50;;;;;;;3.26;100.00;95838.78;4956220;29;20625;-94
2021/01/28 09:47:17;;;;;;;5.37;4.87;;;;;;;2.35;100.00;95834.72;4955819;29;20216;-93
2021/01/28 09:49:45;;;;;;;4.53;4.13;;;;;;;2.67;100.00;95835.75;4955748;29;20209;-92
2021/01/28 09:52:27;;;;;;;4.77;4.33;;;;;;;2.64;100.00;95829.06;4955642;29;20230;-92
2021/01/28 09:54:58;;;;;;;4.23;3.80;;;;;;;2.61;100.00;95827.53;4955549;29;20229;-95
2021/01/28 09:57:26;;;;;;;4.43;4.03;;;;;;;2.78;100.00;95821.00;4955550;28;20288;-92
2021/01/28 09:59:54;;;;;;;5.77;5.17;;;;;;;3.00;100.00;95817.50;4955805;29;20233;-93
2021/01/28 10:02:27;;;;;;;5.77;5.10;;;;;;;3.01;100.00;95826.13;4955407;29;20744;-94
2021/01/28 10:04:54;;;;;;;7.50;6.03;;;;;;;3.46;100.00;95818.97;4955309;29;20229;-93
2021/01/28 10:07:21;;;;;;;6.10;5.13;;;;;;;2.82;100.00;95821.59;4956146;29;20197;-95
2021/01/28 10:09:48;;;;;;;5.43;4.17;;;;;;;3.03;100.00;95813.84;4955289;28;20332;-93
2021/01/28 10:12:17;;;;;;;6.67;5.43;;;;;;;3.43;100.00;95813.19;4955246;29;20222;-94
2021/01/28 10:14:44;;;;;;;7.30;5.27;;;;;;;4.01;100.00;95818.75;4955227;29;20202;-94
2021/01/28 10:17:13;;;;;;;6.97;5.83;;;;;;;4.43;100.00;95810.84;4955888;28;20587;-94
2021/01/28 10:19:43;;;;;;;5.27;4.73;;;;;;;4.08;100.00;95813.88;4955103;29;20249;-93
2021/01/28 10:22:11;;;;;;;6.37;5.77;;;;;;;3.60;100.00;95807.44;4955268;29;20194;-95
2021/01/28 10:24:38;;;;;;;6.50;5.37;;;;;;;4.03;100.00;95819.47;4960489;28;20198;-96
2021/01/28 10:27:05;;;;;;;5.80;5.20;;;;;;;3.85;100.00;95811.44;4977654;28;20189;-96
2021/01/28 10:57:54;;;;;;;6.43;4.73;;;;;;;4.47;100.00;95794.03;4947340;29;20226;-96
2021/01/28 11:00:22;;;;;;;6.53;5.60;;;;;;;5.35;100.00;95793.19;4940968;29;20297;-96
2021/01/28 11:02:50;;;;;;;4.47;4.00;;;;;;;5.28;100.00;95802.50;4940556;29;20218;-95
2021/01/28 11:05:20;;;;;;;4.90;4.50;;;;;;;5.39;100.00;95793.72;4939739;29;20213;-96
2021/01/28 11:07:47;;;;;;;5.07;4.63;;;;;;;5.36;100.00;95797.44;4940641;29;20574;-96
2021/01/28 11:10:15;;;;;;;5.83;4.63;;;;;;;4.86;100.00;95789.75;4940245;29;20194;-95
2021/01/28 11:12:42;;;;;;;3.90;3.50;;;;;;;4.05;100.00;95791.53;4939522;29;20226;-95
2021/01/28 11:15:12;;;;;;;5.43;4.20;;;;;;;3.78;100.00;95798.13;4939756;29;20668;-96
2021/01/28 11:17:39;;;;;;;4.67;4.20;;;;;;;3.55;100.00;95794.84;4940357;29;20667;-96
2021/01/28 11:20:10;;;;;;;5.13;4.17;;;;;;;3.39;100.00;95802.22;4939609;29;20210;-95
2021/01/28 11:22:37;;;;;;;4.90;4.30;;;;;;;3.02;100.00;95792.25;4939331;29;20210;-95
2021/01/28 11:25:06;;;;;;;21.33;12.67;;;;;;;3.05;100.00;95794.63;4939315;29;20241;-94
2021/01/28 11:27:33;;;;;;;15.10;11.23;;;;;;;3.78;100.00;95785.13;4939155;29;20195;-96
2021/01/28 11:30:00;;;;;;;9.07;8.17;;;;;;;3.35;100.00;95793.06;4939435;29;20258;-95
2021/01/28 11:32:28;;;;;;;4.93;4.23;;;;;;;3.97;100.00;95797.41;4938863;29;20718;-94
2021/01/28 11:34:54;;;;;;;4.17;3.77;;;;;;;4.18;100.00;95799.94;4939143;29;20670;-94
2021/01/28 11:37:21;;;;;;;3.93;3.30;;;;;;;3.91;100.00;95792.69;4939051;29;20274;-95
2021/01/28 11:39:49;;;;;;;5.00;3.90;;;;;;;4.02;100.00;95797.03;4939157;29;20746;-93
2021/01/28 11:42:17;;;;;;;4.80;4.13;;;;;;;3.41;100.00;95789.13;4939112;29;20198;-94
2021/01/28 11:44:44;;;;;;;7.07;5.73;;;;;;;3.31;100.00;95781.28;4938889;29;20201;-94
2021/01/28 11:47:11;;;;;;;6.43;5.77;;;;;;;4.29;100.00;95783.41;4939010;29;20202;-95
2021/01/28 11:49:38;;;;;;;6.70;4.70;;;;;;;5.38;100.00;95777.28;4938646;29;20217;-94
2021/01/28 11:52:05;;;;;;;4.83;4.43;;;;;;;5.06;100.00;95771.50;4938452;29;20222;-93
2021/01/28 11:54:32;;;;;;;5.03;4.53;;;;;;;4.72;100.00;95770.13;4938892;29;20281;-93
2021/01/28 11:56:59;;;;;;;4.93;4.10;;;;;;;3.67;100.00;95777.41;4938178;29;20317;-93
2021/01/28 11:59:26;;;;;;;5.23;4.70;;;;;;;3.43;100.00;95775.06;4938459;29;20233;-95
2021/01/28 12:01:53;;;;;;;4.07;3.73;;;;;;;3.03;100.00;95778.31;4938513;29;20250;-92
2021/01/28 12:04:19;;;;;;;4.43;3.83;;;;;;;2.60;100.00;95771.41;4938276;29;20194;-94
2021/01/28 12:06:47;;;;;;;7.10;5.13;;;;;;;2.84;100.00;95767.75;4938380;29;20197;-94
2021/01/28 12:09:14;;;;;;;5.57;4.90;;;;;;;2.84;100.00;95762.56;4938268;29;20202;-93
2021/01/28 12:11:41;;;;;;;5.50;4.73;;;;;;;2.89;100.00;95764.81;4938274;29;20314;-94
2021/01/28 12:14:08;;;;;;;4.83;4.37;;;;;;;2.66;100.00;95764.06;4938517;29;20684;-94
2021/01/28 12:16:34;;;;;;;5.13;4.13;;;;;;;2.83;100.00;95761.75;4938341;29;20199;-94
2021/01/28 12:19:01;;;;;;;4.63;3.90;;;;;;;2.56;100.00;95764.81;4938156;29;20194;-93
2021/01/28 12:21:29;;;;;;;4.23;3.83;;;;;;;2.29;100.00;95757.44;4938156;29;20286;-94
2021/01/28 12:23:57;;;;;;;3.60;3.27;;;;;;;2.48;100.00;95751.59;4938353;29;20262;-95
2021/01/28 12:26:24;;;;;;;4.93;4.40;;;;;;;2.58;100.00;95760.31;4937988;29;20202;-93
2021/01/28 12:28:51;;;;;;;6.83;5.00;;;;;;;2.72;100.00;95760.97;4937940;29;20210;-93
2021/01/28 12:31:18;;;;;;;5.50;4.00;;;;;;;2.32;100.00;95767.56;4938135;29;20609;-94
2021/01/28 12:33:45;;;;;;;6.67;5.77;;;;;;;2.32;100.00;95767.56;4938370;29;20198;-94
2021/01/28 12:36:12;;;;;;;6.33;5.10;;;;;;;2.42;100.00;95772.00;4938096;29;20207;-93
2021/01/28 12:38:39;;;;;;;4.70;4.30;;;;;;;2.44;100.00;95776.13;4938098;29;20648;-93
2021/01/28 12:41:07;;;;;;;4.40;4.00;;;;;;;2.25;100.00;95781.97;4937928;29;20686;-92
2021/01/28 12:43:34;;;;;;;6.27;5.63;;;;;;;2.50;100.00;95775.66;4937714;29;20195;-94
2021/01/28 12:46:01;;;;;;;5.57;5.07;;;;;;;2.36;100.00;95781.13;4938033;29;20217;-92
2021/01/28 12:48:27;;;;;;;6.67;5.97;;;;;;;2.42;100.00;95798.75;4937956;29;20206;-92
2021/01/28 12:50:54;;;;;;;6.20;5.03;;;;;;;2.40;100.00;95795.50;4937748;29;20226;-93
2021/01/28 12:53:21;;;;;;;11.77;7.93;;;;;;;2.50;100.00;95793.00;4937454;29;20213;-93
2021/01/28 12:55:48;;;;;;;8.70;7.87;;;;;;;2.45;100.00;95790.75;4937230;29;20206;-93
2021/01/28 12:58:16;;;;;;;17.93;13.47;;;;;;;2.21;100.00;95797.84;4937375;29;20187;-94
2021/01/28 13:00:43;;;;;;;11.00;8.67;;;;;;;2.08;100.00;95801.41;4938342;29;20191;-93
2021/01/28 13:03:10;;;;;;;8.97;7.90;;;;;;;2.12;100.00;95807.19;4937200;29;20219;-93
2021/01/28 13:05:37;;;;;;;14.40;9.07;;;;;;;2.17;100.00;95799.03;4937402;29;20198;-93
2021/01/28 13:08:04;;;;;;;14.17;10.23;;;;;;;2.00;100.00;95795.16;4937429;29;20215;-94